Airfield :
LOGIN :

Register | Disclaimer

   EN    FR    IT 

 










Legend :    VFR   Marginal VFR   IFR   Intensive IFR   Very Intensive IFR
Visi :
Ceiling :
>= 8 km
>= 3000ft
5 to 8 km
1000 to 3000 ft
1500m to 5 km
500 to 1000 ft
800 to 1500m
200 to 500 ft
< 800m
< 200 ft
Symbols :   Thunderstorms  Fog  Heavy snow  Heavy precipitations  Wind > 20 kt
SIGMETs :     Misc.  Thunderstorms  Icing  Turbulence  Mountain Waves  Volcanic Ashes






- Airport Elevation : 1046 ft
- IATA code : NUE


EDDN - Nuremberg

CURRENT METAR :
  • 212350Z AUTO 36003KT CAVOK 02/M00 Q1021

EXPIRED METARs :
  • 212320Z AUTO 36004KT CAVOK 02/M01 Q1021
  • 212250Z AUTO 01003KT 9999 SCT047 03/M01 Q1021
  • 212220Z AUTO 02004KT 360V060 9999 FEW042 03/M01 Q1021
  • 212150Z AUTO 03003KT 350V050 9999 FEW045 03/M01 Q1021
  • 212120Z AUTO 01003KT 320V050 9999 SCT042 03/00 Q1021
  • 212050Z AUTO 36004KT 330V030 9999 SCT038 BKN045 03/01 Q1021
  • 212020Z AUTO 36004KT 9999 SCT041 BKN047 03/01 Q1021
  • 211950Z AUTO 36004KT 340V040 9999 BKN043 03/01 Q1020 NOSIG
  • 211920Z AUTO 34007KT 9999 FEW037 03/00 Q1020 NOSIG

TAF TAF EDDN
Valid from the 22 at 00:00 until the 23 at 00:00 UTC


212300Z 2200/2224 VRB03KT 9999 FEW040
BECMG 2206/2208 04007KT
PROB30
TEMPO 2212/2215 4000 SHGS BKN020TCU



MET'MAP, your aeronautical weather chart ! - Copyright ORBIFLY December 2007 - Disclaimer

ORBIFLY MET'MAP TEAM :

Programming & Development : Alexandra Zaïnal
Original concept : Baudouin d'Aumeries
Technical & hardware support : Manuel Goepfert
Assistance : Marc-Olivier Méhu




SOURCES & CREDITS :

   NOAA